createdAt,value
2019-03-03T00:00:28.409Z,97524.65
2019-03-03T00:05:31.867Z,97520.04
2019-03-03T00:10:33.617Z,97526.87
2019-03-03T00:15:35.475Z,97526.00
2019-03-03T00:20:37.271Z,97513.84
2019-03-03T00:25:39.935Z,97512.69
2019-03-03T00:30:41.871Z,97508.60
2019-03-03T00:35:43.448Z,97506.72
2019-03-03T00:40:50.883Z,97506.27
2019-03-03T00:46:10.901Z,97495.24
2019-03-03T00:51:32.613Z,97492.33
2019-03-03T00:56:36.143Z,97490.64
2019-03-03T01:01:37.719Z,97489.12
2019-03-03T01:06:41.508Z,97476.55
2019-03-03T01:11:48.088Z,97473.09
2019-03-03T01:16:57.453Z,97470.80
2019-03-03T01:22:01.011Z,97462.44
2019-03-03T01:27:03.890Z,97461.51
2019-03-03T01:32:05.652Z,97462.46
2019-03-03T01:37:07.203Z,97461.05
2019-03-03T01:42:08.756Z,97460.86
2019-03-03T01:47:10.310Z,97464.13
2019-03-03T01:52:12.259Z,97456.64
2019-03-03T01:57:13.997Z,97446.97
2019-03-03T02:02:16.148Z,97446.42
2019-03-03T02:07:17.904Z,97456.73
2019-03-03T02:12:19.759Z,97449.50
2019-03-03T02:17:21.465Z,97440.80
2019-03-03T02:22:23.124Z,97447.17
2019-03-03T02:27:24.798Z,97449.41
2019-03-03T02:32:26.413Z,97442.47
2019-03-03T02:37:27.978Z,97444.35
2019-03-03T02:42:29.628Z,97445.47
2019-03-03T02:47:31.182Z,97434.98
2019-03-03T02:52:32.778Z,97425.23
2019-03-03T02:57:34.768Z,97417.73
2019-03-03T03:02:40.920Z,97412.01
2019-03-03T03:07:59.449Z,97408.53
2019-03-03T03:13:03.064Z,97410.72
2019-03-03T03:18:06.518Z,97403.59
2019-03-03T03:23:09.979Z,97400.86
2019-03-03T03:28:13.496Z,97405.92
2019-03-03T03:33:17.840Z,97403.87
2019-03-03T03:38:30.020Z,97398.59
2019-03-03T03:43:50.255Z,97401.20
2019-03-03T03:48:57.927Z,97399.80
2019-03-03T03:54:14.732Z,97391.48
2019-03-03T03:59:22.403Z,97391.48
2019-03-03T04:04:34.800Z,97391.11
2019-03-03T04:09:46.916Z,97390.72
2019-03-03T04:14:57.195Z,97382.27
2019-03-03T04:19:58.958Z,97382.84
2019-03-03T04:25:08.287Z,97384.42
2019-03-03T04:30:18.095Z,97383.97
2019-03-03T04:35:24.473Z,97384.03
2019-03-03T04:40:30.872Z,97378.70
2019-03-03T04:45:51.111Z,97375.73
2019-03-03T04:50:55.694Z,97380.32
2019-03-03T04:56:11.339Z,97377.30
2019-03-03T05:01:19.397Z,97386.97
2019-03-03T05:06:28.759Z,97373.36
2019-03-03T05:12:20.368Z,97358.19
2019-03-03T05:17:31.196Z,97371.02
2019-03-03T05:22:32.753Z,97363.80
2019-03-03T05:27:34.320Z,97353.19
2019-03-03T05:32:36.073Z,97357.03
2019-03-03T05:37:37.688Z,97350.08
2019-03-03T05:42:39.235Z,97355.23
2019-03-03T05:47:40.787Z,97356.34
2019-03-03T05:52:42.846Z,97349.95
2019-03-03T05:57:45.328Z,97350.41
2019-03-03T06:02:46.892Z,97355.55
2019-03-03T06:07:48.753Z,97355.14
2019-03-03T06:12:51.450Z,97343.69
2019-03-03T06:17:53.059Z,97347.80
2019-03-03T06:22:55.021Z,97349.88
2019-03-03T06:27:56.567Z,97345.00
2019-03-03T06:32:58.522Z,97349.45
2019-03-03T06:38:00.142Z,97339.92
2019-03-03T06:43:01.716Z,97332.91
2019-03-03T06:48:03.375Z,97329.67
2019-03-03T06:53:04.916Z,97323.31
2019-03-03T06:58:06.530Z,97320.17
2019-03-03T07:03:08.208Z,97311.08
2019-03-03T07:08:09.790Z,97310.98
2019-03-03T07:13:11.355Z,97311.13
2019-03-03T07:18:12.924Z,97298.34
2019-03-03T07:23:14.484Z,97306.09
2019-03-03T07:28:17.298Z,97314.11
2019-03-03T07:33:21.022Z,97311.78
2019-03-03T07:38:22.573Z,97324.49
2019-03-03T07:43:24.129Z,97330.52
2019-03-03T07:48:25.680Z,97327.97
2019-03-03T07:53:27.259Z,97327.52
2019-03-03T07:58:28.847Z,97324.34
2019-03-03T08:03:30.460Z,97305.86
2019-03-03T08:08:32.217Z,97304.97
2019-03-03T08:13:34.875Z,97303.92
2019-03-03T08:18:36.656Z,97310.41
2019-03-03T08:23:38.516Z,97313.61
2019-03-03T08:28:40.084Z,97308.52
2019-03-03T08:33:41.743Z,97303.75
2019-03-03T08:38:43.292Z,97291.30
2019-03-03T08:43:49.649Z,97299.95
2019-03-03T08:48:53.099Z,97306.45
2019-03-03T08:54:08.284Z,97313.77
2019-03-03T08:59:20.696Z,97319.30
2019-03-03T09:04:42.427Z,97313.30
2019-03-03T09:09:51.772Z,97307.05
2019-03-03T09:15:01.343Z,97304.05
2019-03-03T09:20:15.164Z,97284.34
2019-03-03T09:25:30.776Z,97292.98
2019-03-03T09:30:46.227Z,97297.72
2019-03-03T09:35:53.333Z,97287.30
2019-03-03T09:40:56.789Z,97291.80
2019-03-03T09:45:58.350Z,97285.09
2019-03-03T09:51:08.765Z,97283.40
2019-03-03T09:56:15.153Z,97284.42
2019-03-03T10:01:24.735Z,97291.11
2019-03-03T10:06:38.521Z,97294.19
2019-03-03T10:11:40.073Z,97298.55
2019-03-03T10:16:46.218Z,97297.30
2019-03-03T10:21:49.673Z,97278.94
2019-03-03T10:26:53.138Z,97281.47
2019-03-03T10:32:09.087Z,97281.27
2019-03-03T10:37:14.425Z,97270.82
2019-03-03T10:42:18.232Z,97259.66
2019-03-03T10:47:19.989Z,97255.34
2019-03-03T10:52:29.500Z,97261.53
2019-03-03T10:57:50.058Z,97260.44
2019-03-03T11:03:02.562Z,97269.86
2019-03-03T11:08:10.180Z,97268.41
2019-03-03T11:13:24.288Z,97266.67
2019-03-03T11:18:36.824Z,97255.53
2019-03-03T11:23:40.486Z,97250.71
2019-03-03T11:28:43.961Z,97247.77
2019-03-03T11:33:47.528Z,97250.61
2019-03-03T11:38:56.999Z,97243.63
2019-03-03T11:44:00.862Z,97245.32
2019-03-03T11:49:22.834Z,97227.59
2019-03-03T11:54:38.286Z,97222.95
2019-03-03T11:59:44.651Z,97217.88
2019-03-03T12:04:59.788Z,97214.14
2019-03-03T12:10:10.642Z,97211.62
2019-03-03T12:15:17.351Z,97201.84
2019-03-03T12:20:38.040Z,97193.45
2019-03-03T12:25:44.372Z,97188.70
2019-03-03T12:30:47.950Z,97181.41
2019-03-03T12:35:51.443Z,97184.14
2019-03-03T12:40:56.921Z,97177.87
2019-03-03T12:46:01.194Z,97172.74
2019-03-03T12:51:04.849Z,97159.03
2019-03-03T12:56:08.335Z,97177.77
2019-03-03T13:01:14.411Z,97174.50
2019-03-03T13:06:36.004Z,97161.05
2019-03-03T13:11:52.011Z,97179.53
2019-03-03T13:17:13.692Z,97148.75
2019-03-03T13:22:33.915Z,97159.92
2019-03-03T13:27:49.766Z,97159.63
2019-03-03T13:32:53.523Z,97146.03
2019-03-03T13:38:06.230Z,97158.68
2019-03-03T13:43:07.888Z,97152.60
2019-03-03T13:48:09.487Z,97156.08
2019-03-03T13:53:11.740Z,97153.50
2019-03-03T13:58:13.488Z,97144.70
2019-03-03T14:03:15.391Z,97143.14
2019-03-03T14:08:17.143Z,97144.62
2019-03-03T14:13:18.735Z,97123.66
2019-03-03T14:18:20.377Z,97113.61
2019-03-03T14:23:22.045Z,97108.89
2019-03-03T14:28:23.909Z,97109.81
2019-03-03T14:33:25.481Z,97098.61
2019-03-03T14:38:27.024Z,97094.62
2019-03-03T14:43:28.660Z,97075.67
2019-03-03T14:48:30.251Z,97075.23
2019-03-03T14:53:31.825Z,97080.45
2019-03-03T14:58:33.526Z,97077.66
2019-03-03T15:03:35.212Z,97070.19
2019-03-03T15:08:36.785Z,97059.37
2019-03-03T15:13:38.337Z,97058.73
2019-03-03T15:18:40.156Z,97054.05
2019-03-03T15:23:41.773Z,97054.54
2019-03-03T15:28:43.429Z,97056.83
2019-03-03T15:33:44.983Z,97054.93
2019-03-03T15:38:46.559Z,97049.02
2019-03-03T15:43:48.167Z,97047.62
2019-03-03T15:48:49.729Z,97040.12
2019-03-03T15:53:51.653Z,97032.39
2019-03-03T15:58:55.838Z,97020.95
2019-03-03T16:03:56.750Z,97025.25
2019-03-03T16:08:58.328Z,97025.03
2019-03-03T16:13:59.891Z,97024.81
2019-03-03T16:19:01.778Z,97024.65
2019-03-03T16:24:03.542Z,97012.22
2019-03-03T16:29:05.120Z,97010.59
2019-03-03T16:34:06.725Z,97008.44
2019-03-03T16:39:08.604Z,97006.58
2019-03-03T16:44:10.419Z,97002.98
2019-03-03T16:49:11.982Z,97007.00
2019-03-03T16:54:13.657Z,97002.71
2019-03-03T16:59:15.274Z,96998.16
2019-03-03T17:04:16.860Z,96997.56
2019-03-03T17:09:19.022Z,96996.64
2019-03-03T17:14:20.622Z,96996.15
2019-03-03T17:19:22.178Z,96987.31
2019-03-03T17:24:23.732Z,96983.54
2019-03-03T17:29:25.301Z,96978.16
2019-03-03T17:34:26.877Z,96975.52
2019-03-03T17:39:28.435Z,96970.73
2019-03-03T17:44:30.208Z,96960.13
2019-03-03T17:49:31.784Z,96951.47
2019-03-03T17:54:34.772Z,96952.05
2019-03-03T17:59:36.353Z,96949.19
2019-03-03T18:04:37.991Z,96946.05
2019-03-03T18:09:40.066Z,96941.36
2019-03-03T18:14:41.656Z,96938.94
2019-03-03T18:19:43.232Z,96936.80
2019-03-03T18:24:44.924Z,96936.72
2019-03-03T18:29:47.633Z,96921.63
2019-03-03T18:34:51.417Z,96929.23
2019-03-03T18:39:53.036Z,96917.42
2019-03-03T18:44:55.821Z,96917.23
2019-03-03T18:49:59.143Z,96913.63
2019-03-03T18:55:11.208Z,96921.11
2019-03-03T19:00:22.532Z,96910.90
2019-03-03T19:05:24.729Z,96912.69
2019-03-03T19:10:33.318Z,96915.00
2019-03-03T19:15:35.346Z,96907.09
2019-03-03T19:20:37.071Z,96905.83
2019-03-03T19:25:38.600Z,96907.40
2019-03-03T19:30:40.203Z,96900.68
2019-03-03T19:35:42.172Z,96886.75
2019-03-03T19:40:44.044Z,96882.86
2019-03-03T19:45:56.942Z,96882.37
2019-03-03T19:50:58.738Z,96876.25
2019-03-03T19:56:00.330Z,96868.48
2019-03-03T20:01:03.573Z,96866.48
2019-03-03T20:06:06.588Z,96870.88
2019-03-03T20:11:08.273Z,96866.84
2019-03-03T20:16:09.932Z,96854.45
2019-03-03T20:21:11.549Z,96849.02
2019-03-03T20:26:13.270Z,96853.63
2019-03-03T20:31:14.914Z,96850.41
2019-03-03T20:36:16.581Z,96852.59
2019-03-03T20:41:18.136Z,96852.91
2019-03-03T20:46:20.186Z,96849.59
2019-03-03T20:51:21.965Z,96842.27
2019-03-03T20:56:23.529Z,96845.41
2019-03-03T21:01:25.144Z,96836.22
2019-03-03T21:06:26.746Z,96836.71
2019-03-03T21:11:28.303Z,96826.77
2019-03-03T21:16:29.856Z,96825.09
2019-03-03T21:21:31.712Z,96827.09
2019-03-03T21:26:33.302Z,96829.13
2019-03-03T21:31:34.998Z,96826.48
2019-03-03T21:36:36.540Z,96829.89
2019-03-03T21:41:38.097Z,96814.37
2019-03-03T21:46:39.789Z,96806.94
2019-03-03T21:51:42.640Z,96810.18
2019-03-03T21:56:44.326Z,96798.48
2019-03-03T22:01:46.378Z,96787.44
2019-03-03T22:06:50.597Z,96789.02
2019-03-03T22:11:52.447Z,96775.52
2019-03-03T22:16:54.312Z,96768.79
2019-03-03T22:21:56.056Z,96766.53
2019-03-03T22:26:57.703Z,96763.13
2019-03-03T22:31:59.402Z,96752.89
2019-03-03T22:37:00.973Z,96758.80
2019-03-03T22:42:02.623Z,96757.71
2019-03-03T22:47:04.222Z,96758.00
2019-03-03T22:52:05.897Z,96757.14
2019-03-03T22:57:07.463Z,96753.97
2019-03-03T23:02:12.205Z,96750.91
2019-03-03T23:07:22.375Z,96756.81
2019-03-03T23:13:01.778Z,96742.05
2019-03-03T23:18:40.797Z,96732.59
2019-03-03T23:24:21.025Z,96727.52
2019-03-03T23:29:22.593Z,96726.62
2019-03-03T23:34:24.211Z,96722.42
2019-03-03T23:39:25.793Z,96718.97
2019-03-03T23:44:27.353Z,96720.98
2019-03-03T23:49:29.005Z,96712.20
2019-03-03T23:54:30.559Z,96710.55
2019-03-03T23:59:32.124Z,96710.77
